METAR Data
IDs: Format: Raw Decoded Include TAF

Data at: 0108 UTC 12 May 2021

KGSH 120053Z AUTO 33007KT 10SM CLR 07/M01 A3033 RMK AO2 SLP274 T00721006
KGSH 112353Z AUTO 33011KT 10SM CLR 09/M02 A3031 RMK AO2 SLP269 T00941017 10117 20094 53007
KGSH 112253Z AUTO 31007KT 10SM CLR 10/M02 A3030 RMK AO2 SLP264 T01001022
KGSH 112153Z AUTO 36013KT 10SM CLR 11/M02 A3028 RMK AO2 SLP260 T01061017
KGSH 112053Z AUTO 36014G26KT 10SM CLR 11/M02 A3029 RMK AO2 PK WND 35026/2044 SLP261 T01111022 56011
KGSH 111953Z AUTO 34016G22KT 10SM BKN055 12/M01 A3030 RMK AO2 SLP264 T01171006
KGSH 111853Z AUTO 31015G23KT 10SM BKN060 11/M01 A3030 RMK AO2 SLP265 T01111011
KGSH 111753Z AUTO 33016G23KT 10SM BKN055 OVC065 11/M01 A3032 RMK AO2 SLP272 T01061006 10111 20039 50001
KGSH 111653Z AUTO 31010G19KT 10SM BKN060 09/M02 A3032 RMK AO2 SLP274 T00941017
KGSH 111553Z AUTO 01014G22KT 10SM BKN055 09/M01 A3033 RMK AO2 SLP274 T00941011
KGSH 111453Z AUTO 35010G18KT 10SM CLR 09/M01 A3032 RMK AO2 SLP271 T00941011 51008
KGSH 111353Z AUTO 36012KT 10SM CLR 08/M01 A3032 RMK AO2 SLP270 T00831006
KGSH 111253Z AUTO 01011KT 10SM CLR 06/00 A3031 RMK AO2 SLP268 T00610000
KGSH 111153Z AUTO 36005KT 10SM CLR 04/00 A3029 RMK AO2 SLP263 T00390000 10039 20011 53023
KGSH 111053Z AUTO 35006KT 10SM CLR 02/M01 A3026 RMK AO2 SLP253 T00171011
KGSH 110953Z AUTO 35007KT 10SM FEW110 02/M01 A3024 RMK AO2 SLP247 T00171011
KGSH 110853Z AUTO 35005KT 10SM SCT100 BKN120 02/M01 A3022 RMK AO2 SLP239 T00221011 53007
KGSH 110753Z AUTO 33003KT 10SM BKN120 03/M01 A3021 RMK AO2 SLP234 T00281011
KGSH 110653Z AUTO 36006KT 10SM CLR 04/M01 A3021 RMK AO2 SLP232 T00391006
KGSH 110553Z AUTO 35006KT 10SM CLR 03/M01 A3020 RMK AO2 SLP232 T00331011 10100 20033 51006
KGSH 110453Z AUTO 34008KT 10SM CLR 05/M02 A3020 RMK AO2 SLP230 T00501022 401280006
KGSH 110353Z AUTO 33006KT 10SM FEW120 06/M02 A3019 RMK AO2 SLP228 T00561022
KGSH 110253Z AUTO 34008KT 10SM OVC120 07/M03 A3018 RMK AO2 SLP224 T00671028 51015
KGSH 110153Z AUTO 34008KT 10SM BKN110 07/00 A3018 RMK AO2 SLP222 T00720000
KGSH 110053Z AUTO 34008KT 10SM FEW110 08/01 A3016 RMK AO2 SLP216 T00830011
KGSH 102353Z AUTO 34009KT 10SM CLR 10/02 A3014 RMK AO2 SLP210 60000 T01000017 10128 20100 53006
KGSH 102253Z AUTO 34009KT 10SM CLR 11/03 A3013 RMK AO2 SLP207 T01110028
KGSH 102153Z AUTO 33007KT 10SM SCT049 BKN060 11/02 A3012 RMK AO2 SLP204 T01110022
KGSH 102053Z AUTO 01009KT 10SM OVC048 12/02 A3012 RMK AO2 SLP204 60000 T01170022 55003
KGSH 101953Z AUTO 25009KT 10SM OVC048 13/03 A3012 RMK AO2 SLP204 T01280033
KGSH 101853Z AUTO 26008KT 10SM OVC049 12/03 A3012 RMK AO2 RAE1755 SLP203 P0000 T01170028
KGSH 101753Z AUTO 31011G15KT 10SM -RA BKN050 OVC070 11/02 A3013 RMK AO2 RAB44 SLP207 P0000 60000 T01110017 10117 20028 50003
KGSH 101653Z AUTO 00000KT 10SM SCT060 BKN070 11/01 A3013 RMK AO2 SLP208 T01110006
KGSH 101553Z AUTO 00000KT 10SM OVC070 11/01 A3013 RMK AO2 SLP205 T01060011
KGSH 101453Z AUTO 01005KT 10SM BKN070 OVC090 10/02 A3012 RMK AO2 SLP202 T01000022 53006
KGSH 101353Z AUTO 01006KT 10SM OVC070 09/03 A3011 RMK AO2 SLP201 T00890028